createdAt,value
2019-03-25T00:14:32.015Z,35.70
2019-03-25T00:17:01.066Z,38.77
2019-03-25T00:19:29.987Z,39.33
2019-03-25T00:21:58.920Z,38.43
2019-03-25T00:24:38.215Z,42.50
2019-03-25T00:26:58.004Z,35.40
2019-03-25T00:29:27.719Z,43.33
2019-03-25T00:31:56.499Z,42.27
2019-03-25T00:34:25.148Z,35.87
2019-03-25T00:36:54.083Z,41.33
2019-03-25T00:39:22.881Z,34.23
2019-03-25T00:41:51.606Z,36.77
2019-03-25T00:44:20.460Z,35.57
2019-03-25T00:46:49.251Z,39.70
2019-03-25T00:49:17.954Z,36.97
2019-03-25T00:51:46.693Z,41.63
2019-03-25T00:54:15.736Z,34.27
2019-03-25T00:56:44.443Z,38.57
2019-03-25T00:59:13.222Z,38.23
2019-03-25T01:01:41.951Z,39.50
2019-03-25T01:04:10.726Z,44.10
2019-03-25T01:06:39.577Z,36.63
2019-03-25T01:09:08.510Z,34.20
2019-03-25T01:11:48.415Z,35.37
2019-03-25T01:14:07.691Z,37.83
2019-03-25T01:16:36.332Z,33.17
2019-03-25T01:19:05.069Z,39.07
2019-03-25T01:21:33.848Z,30.70
2019-03-25T01:24:02.536Z,33.27
2019-03-25T01:26:31.269Z,37.07
2019-03-25T01:29:00.187Z,37.43
2019-03-25T01:31:28.961Z,37.37
2019-03-25T01:33:57.560Z,32.40
2019-03-25T01:36:26.415Z,34.80
2019-03-25T01:38:55.290Z,35.43
2019-03-25T01:41:23.928Z,37.23
2019-03-25T01:43:52.698Z,37.83
2019-03-25T01:46:21.367Z,36.50
2019-03-25T01:48:50.144Z,36.47
2019-03-25T01:51:18.950Z,36.87
2019-03-25T01:53:47.654Z,38.10
2019-03-25T01:56:16.277Z,38.57
2019-03-25T01:58:45.197Z,36.73
2019-03-25T02:01:14.165Z,43.00
2019-03-25T02:03:42.920Z,34.10
2019-03-25T02:06:11.709Z,32.60
2019-03-25T02:08:40.517Z,28.83
2019-03-25T02:11:09.356Z,39.63
2019-03-25T02:13:38.126Z,36.33
2019-03-25T02:16:06.818Z,40.03
2019-03-25T02:18:35.733Z,38.50
2019-03-25T02:21:05.588Z,38.53
2019-03-25T02:23:34.342Z,34.60
2019-03-25T02:26:03.094Z,37.80
2019-03-25T02:28:31.846Z,36.93
2019-03-25T02:31:00.573Z,39.03
2019-03-25T02:33:29.221Z,42.33
2019-03-25T02:35:58.030Z,39.93
2019-03-25T02:38:26.688Z,34.73
2019-03-25T02:40:55.415Z,39.20
2019-03-25T02:43:24.266Z,42.20
2019-03-25T02:45:52.925Z,41.80
2019-03-25T02:48:21.609Z,36.97
2019-03-25T02:50:50.382Z,37.07
2019-03-25T02:53:19.135Z,41.80
2019-03-25T02:55:48.169Z,41.07
2019-03-25T02:58:16.994Z,36.80
2019-03-25T03:00:45.738Z,38.37
2019-03-25T03:03:14.514Z,38.47
2019-03-25T03:05:43.479Z,32.67
2019-03-25T03:08:12.269Z,36.37
2019-03-25T03:10:41.026Z,39.07
2019-03-25T03:13:09.781Z,33.03
2019-03-25T03:15:38.571Z,42.63
2019-03-25T03:18:07.338Z,38.17
2019-03-25T03:20:36.111Z,33.90
2019-03-25T03:23:04.878Z,35.73
2019-03-25T03:25:33.648Z,35.77
2019-03-25T03:28:02.631Z,33.37
2019-03-25T03:30:31.336Z,36.97
2019-03-25T03:33:00.200Z,40.20
2019-03-25T03:35:29.080Z,32.37
2019-03-25T03:37:57.902Z,39.00
2019-03-25T03:40:26.633Z,38.97
2019-03-25T03:42:55.588Z,35.63
2019-03-25T03:45:24.433Z,31.80
2019-03-25T03:47:53.269Z,33.63
2019-03-25T03:50:26.668Z,39.20
2019-03-25T03:52:56.356Z,36.30
2019-03-25T03:55:25.302Z,38.70
2019-03-25T03:57:56.894Z,36.43
2019-03-25T04:00:35.373Z,34.90
2019-03-25T04:03:04.552Z,38.53
2019-03-25T04:05:33.355Z,39.27
2019-03-25T04:08:02.194Z,37.03
2019-03-25T04:10:31.234Z,34.47
2019-03-25T04:13:00.092Z,34.23
2019-03-25T04:15:30.537Z,28.50
2019-03-25T04:17:59.653Z,40.30
2019-03-25T04:20:28.454Z,31.80
2019-03-25T04:22:57.199Z,32.13
2019-03-25T04:25:25.911Z,36.03
2019-03-25T04:27:55.010Z,31.07
2019-03-25T04:30:23.852Z,29.73
2019-03-25T04:32:52.602Z,30.73
2019-03-25T04:35:21.416Z,31.00
2019-03-25T04:37:50.314Z,28.00
2019-03-25T04:40:19.214Z,26.17
2019-03-25T04:42:48.068Z,30.83
2019-03-25T04:45:16.920Z,29.83
2019-03-25T04:47:45.736Z,29.33
2019-03-25T04:50:14.582Z,24.77
2019-03-25T04:52:43.274Z,31.83
2019-03-25T04:55:12.193Z,36.13
2019-03-25T04:57:40.936Z,28.17
2019-03-25T05:00:09.881Z,30.10
2019-03-25T05:02:38.684Z,26.97
2019-03-25T05:05:08.786Z,26.90
2019-03-25T05:07:37.762Z,28.37
2019-03-25T05:10:08.036Z,23.27
2019-03-25T05:12:36.902Z,22.33
2019-03-25T05:15:07.535Z,30.17
2019-03-25T05:17:36.454Z,24.10
2019-03-25T05:20:06.257Z,29.70
2019-03-25T05:22:35.053Z,22.73
2019-03-25T05:25:04.469Z,27.33
2019-03-25T05:27:33.214Z,31.47
2019-03-25T05:30:02.036Z,25.80
2019-03-25T05:32:30.727Z,26.00
2019-03-25T05:34:59.474Z,30.57
2019-03-25T05:37:28.212Z,33.33
2019-03-25T05:39:57.015Z,24.97
2019-03-25T05:42:25.885Z,21.87
2019-03-25T05:44:54.725Z,29.70
2019-03-25T05:47:23.594Z,22.57
2019-03-25T05:49:52.435Z,19.70
2019-03-25T05:52:21.246Z,28.47
2019-03-25T05:54:50.091Z,29.80
2019-03-25T05:57:18.762Z,20.10
2019-03-25T05:59:47.520Z,23.23
2019-03-25T06:02:16.300Z,29.90
2019-03-25T06:04:45.014Z,28.93
2019-03-25T06:07:13.805Z,28.50
2019-03-25T06:09:42.595Z,38.67
2019-03-25T06:12:11.281Z,27.97
2019-03-25T06:14:40.124Z,19.47
2019-03-25T06:17:08.823Z,23.57
2019-03-25T06:19:37.509Z,33.47
2019-03-25T06:22:06.283Z,25.53
2019-03-25T06:24:35.198Z,26.83
2019-03-25T06:27:13.565Z,21.27
2019-03-25T06:29:34.540Z,19.87
2019-03-25T06:32:03.238Z,21.73
2019-03-25T06:34:31.963Z,22.07
2019-03-25T06:37:00.709Z,27.43
2019-03-25T06:39:29.474Z,22.57
2019-03-25T06:41:58.330Z,49.07
2019-03-25T06:44:27.032Z,27.47
2019-03-25T06:46:55.915Z,22.93
2019-03-25T06:49:24.795Z,23.83
2019-03-25T06:51:53.557Z,18.77
2019-03-25T06:54:22.394Z,33.50
2019-03-25T06:56:51.138Z,29.60
2019-03-25T06:59:19.862Z,16.10
2019-03-25T07:01:48.607Z,20.83
2019-03-25T07:04:17.261Z,17.35
2019-03-25T07:06:46.008Z,15.80
2019-03-25T07:09:14.760Z,17.40
2019-03-25T07:11:44.215Z,15.20
2019-03-25T07:14:13.107Z,16.02
2019-03-25T07:16:41.934Z,13.05
2019-03-25T07:19:10.789Z,36.42
2019-03-25T07:21:39.513Z,14.50
2019-03-25T07:24:08.309Z,16.05
2019-03-25T07:26:37.113Z,19.82
2019-03-25T07:29:05.785Z,23.50
2019-03-25T07:31:34.556Z,14.13
2019-03-25T07:34:03.307Z,13.70
2019-03-25T07:36:32.191Z,26.45
2019-03-25T07:39:01.087Z,22.15
2019-03-25T07:41:29.887Z,11.40
2019-03-25T07:43:58.782Z,9.85
2019-03-25T07:46:27.738Z,32.83
2019-03-25T07:48:56.460Z,25.30
2019-03-25T07:51:25.326Z,9.20
2019-03-25T07:53:54.229Z,13.83
2019-03-25T07:56:23.017Z,8.95
2019-03-25T07:58:51.867Z,10.63
2019-03-25T08:01:20.731Z,10.50
2019-03-25T08:03:49.552Z,13.43
2019-03-25T08:06:18.274Z,15.45
2019-03-25T08:08:47.636Z,18.55
2019-03-25T08:11:16.293Z,11.70
2019-03-25T08:13:45.115Z,14.75
2019-03-25T08:16:14.154Z,53.08
2019-03-25T08:18:42.967Z,15.00
2019-03-25T08:21:11.830Z,12.95
2019-03-25T08:23:40.709Z,14.93
2019-03-25T08:26:09.881Z,14.78
2019-03-25T08:28:38.709Z,13.65
2019-03-25T08:31:07.694Z,20.70
2019-03-25T08:33:36.561Z,10.50
2019-03-25T08:36:05.461Z,13.65
2019-03-25T08:38:34.457Z,12.70
2019-03-25T08:41:03.208Z,19.30
2019-03-25T08:43:31.889Z,13.70
2019-03-25T08:46:00.828Z,18.00
2019-03-25T08:48:29.775Z,11.40
2019-03-25T08:50:58.429Z,15.50
2019-03-25T08:53:27.328Z,10.87
2019-03-25T08:55:56.189Z,13.47
2019-03-25T08:58:24.928Z,10.90
2019-03-25T09:00:53.767Z,7.63
2019-03-25T09:03:22.660Z,14.60
2019-03-25T09:05:51.523Z,12.87
2019-03-25T09:08:20.628Z,29.13
2019-03-25T09:10:49.466Z,12.10
2019-03-25T09:13:18.288Z,20.80
2019-03-25T09:15:47.240Z,11.77
2019-03-25T09:18:15.992Z,10.93
2019-03-25T09:20:44.778Z,13.53
2019-03-25T09:23:13.763Z,10.93
2019-03-25T09:25:42.662Z,17.27
2019-03-25T09:28:23.328Z,12.40
2019-03-25T09:30:56.995Z,12.60
2019-03-25T09:33:25.818Z,9.93
2019-03-25T09:35:54.721Z,11.07
2019-03-25T09:38:23.666Z,16.03
2019-03-25T09:40:52.377Z,21.63
2019-03-25T09:43:21.537Z,14.03
2019-03-25T09:45:50.519Z,25.30
2019-03-25T09:48:19.326Z,15.57
2019-03-25T09:50:48.563Z,18.83
2019-03-25T09:53:17.402Z,17.33
2019-03-25T09:55:46.276Z,23.47
2019-03-25T09:58:15.069Z,18.07
2019-03-25T10:00:43.885Z,20.93
2019-03-25T10:03:12.668Z,19.33
2019-03-25T10:05:41.618Z,21.77
2019-03-25T10:08:10.400Z,15.13
2019-03-25T10:10:39.368Z,21.00
2019-03-25T10:13:08.471Z,14.00
2019-03-25T10:15:37.219Z,17.00
2019-03-25T10:18:06.059Z,13.53
2019-03-25T10:20:34.862Z,20.20
2019-03-25T10:23:03.585Z,13.90
2019-03-25T10:25:32.396Z,14.33
2019-03-25T10:28:01.177Z,14.00
2019-03-25T10:30:30.123Z,14.00
2019-03-25T10:32:58.885Z,13.57
2019-03-25T10:35:27.658Z,11.97
2019-03-25T10:37:57.102Z,15.77
2019-03-25T10:40:25.830Z,13.70
2019-03-25T10:42:54.558Z,11.20
2019-03-25T10:45:23.428Z,14.60
2019-03-25T10:47:52.179Z,17.03
2019-03-25T10:50:20.831Z,11.77
2019-03-25T10:52:49.790Z,16.07
2019-03-25T10:55:19.004Z,12.50
2019-03-25T10:57:47.748Z,16.27
2019-03-25T11:00:17.130Z,9.23
2019-03-25T11:02:45.837Z,13.80
2019-03-25T11:05:14.833Z,11.57
2019-03-25T11:07:43.586Z,14.87
2019-03-25T11:10:12.714Z,11.17
2019-03-25T11:12:41.553Z,15.70
2019-03-25T11:15:10.984Z,11.90
2019-03-25T11:17:39.749Z,12.73
2019-03-25T11:20:09.963Z,9.37
2019-03-25T11:22:38.890Z,17.60
2019-03-25T11:25:08.492Z,25.40
2019-03-25T11:27:37.251Z,9.30
2019-03-25T11:30:08.467Z,10.40
2019-03-25T11:32:37.403Z,11.70
2019-03-25T11:35:09.158Z,16.27
2019-03-25T11:37:38.016Z,15.13
2019-03-25T11:40:10.963Z,14.87
2019-03-25T11:42:39.717Z,18.27
2019-03-25T11:45:10.504Z,21.23
2019-03-25T11:47:39.279Z,16.23
2019-03-25T11:50:10.065Z,17.63
2019-03-25T11:52:38.975Z,14.77
2019-03-25T11:55:08.349Z,17.07
2019-03-25T11:57:37.147Z,15.10
2019-03-25T12:00:09.111Z,19.70
2019-03-25T12:02:37.953Z,14.13
2019-03-25T12:05:08.264Z,18.63
2019-03-25T12:07:37.125Z,16.43
2019-03-25T12:10:07.151Z,12.83
2019-03-25T12:12:35.942Z,11.17
2019-03-25T12:15:07.785Z,13.73
2019-03-25T12:17:36.629Z,10.00
2019-03-25T12:20:07.111Z,8.40
2019-03-25T12:22:36.002Z,6.57
2019-03-25T12:25:07.238Z,7.03
2019-03-25T12:27:36.081Z,8.47
2019-03-25T12:30:06.981Z,7.63
2019-03-25T12:32:35.778Z,6.10
2019-03-25T12:35:07.194Z,5.00
2019-03-25T12:37:35.990Z,5.03
2019-03-25T12:40:07.888Z,4.67
2019-03-25T12:42:36.349Z,5.63
2019-03-25T12:45:07.312Z,5.40
2019-03-25T12:47:36.054Z,4.30
2019-03-25T12:50:07.865Z,4.60
2019-03-25T12:52:36.758Z,4.97
2019-03-25T12:55:06.335Z,3.63
2019-03-25T12:57:35.068Z,3.70
2019-03-25T13:00:05.655Z,4.93
2019-03-25T13:02:34.394Z,3.40
2019-03-25T13:05:03.206Z,3.53
2019-03-25T13:07:31.905Z,3.67
2019-03-25T13:10:00.658Z,3.57
2019-03-25T13:12:29.289Z,4.73
2019-03-25T13:14:58.508Z,2.70
2019-03-25T13:17:27.297Z,4.67
2019-03-25T13:19:55.992Z,4.63
2019-03-25T13:22:24.761Z,2.60
2019-03-25T13:24:53.956Z,3.00
2019-03-25T13:27:23.279Z,3.07
2019-03-25T13:29:52.988Z,4.00
2019-03-25T13:32:21.966Z,6.10
2019-03-25T13:34:50.799Z,3.03
2019-03-25T13:37:19.649Z,3.83
2019-03-25T13:39:48.552Z,4.33
2019-03-25T13:42:17.275Z,3.93
2019-03-25T13:44:46.130Z,5.60
2019-03-25T13:47:15.181Z,3.03
2019-03-25T13:49:44.011Z,5.07
2019-03-25T13:52:12.880Z,2.90
2019-03-25T13:54:41.830Z,5.00
2019-03-25T13:57:10.476Z,4.60
2019-03-25T13:59:39.286Z,6.67
2019-03-25T14:02:08.012Z,4.20
2019-03-25T14:04:36.655Z,3.97
2019-03-25T14:07:05.496Z,4.67
2019-03-25T14:09:34.318Z,8.03
2019-03-25T14:12:03.173Z,6.53
2019-03-25T14:14:31.997Z,8.20
2019-03-25T14:17:00.806Z,3.90
2019-03-25T14:19:29.546Z,5.13
2019-03-25T14:21:58.452Z,4.73
2019-03-25T14:24:27.462Z,2.93
2019-03-25T14:26:56.475Z,3.27
2019-03-25T14:29:25.527Z,3.13
2019-03-25T14:31:54.446Z,4.97
2019-03-25T14:34:23.189Z,2.90
2019-03-25T14:36:52.002Z,3.60
2019-03-25T14:39:20.820Z,6.63
2019-03-25T14:41:49.691Z,3.93
2019-03-25T14:44:18.634Z,6.30
2019-03-25T14:46:47.593Z,6.00
2019-03-25T14:49:16.434Z,5.77
2019-03-25T14:51:45.558Z,8.10
2019-03-25T14:54:14.785Z,10.57
2019-03-25T14:56:43.813Z,7.77
2019-03-25T14:59:13.059Z,12.60
2019-03-25T15:01:42.215Z,14.73
2019-03-25T15:04:11.265Z,7.13
2019-03-25T15:06:43.391Z,12.23
2019-03-25T15:09:12.755Z,5.80
2019-03-25T15:11:42.171Z,6.57
2019-03-25T15:14:11.286Z,10.77
2019-03-25T15:16:40.375Z,7.90
2019-03-25T15:19:09.698Z,9.57
2019-03-25T15:21:39.323Z,10.27
2019-03-25T15:24:09.505Z,7.47
2019-03-25T15:26:38.702Z,9.57
2019-03-25T15:29:07.937Z,5.50
2019-03-25T15:31:37.186Z,11.67
2019-03-25T15:34:06.635Z,15.50
2019-03-25T15:36:35.788Z,16.70
2019-03-25T15:39:07.692Z,17.77
2019-03-25T15:41:36.995Z,16.47
2019-03-25T15:44:06.431Z,9.67
2019-03-25T15:46:35.594Z,11.03
2019-03-25T15:49:07.295Z,8.17
2019-03-25T15:51:37.242Z,9.50
2019-03-25T15:54:06.462Z,6.57
2019-03-25T15:56:35.760Z,3.77
2019-03-25T15:59:07.807Z,9.17
2019-03-25T16:01:36.909Z,7.03
2019-03-25T16:04:07.435Z,6.60
2019-03-25T16:06:36.616Z,4.67
2019-03-25T16:09:08.099Z,4.57
2019-03-25T16:11:38.934Z,8.70
2019-03-25T16:14:08.098Z,5.10
2019-03-25T16:16:38.723Z,5.63
2019-03-25T16:19:07.807Z,4.73
2019-03-25T16:21:37.022Z,8.03
2019-03-25T16:24:08.403Z,7.90
2019-03-25T16:26:39.779Z,10.13
2019-03-25T16:29:09.112Z,11.23
2019-03-25T16:31:40.426Z,13.43
2019-03-25T16:34:11.236Z,12.77
2019-03-25T16:36:40.412Z,12.67
2019-03-25T16:39:10.523Z,13.27
2019-03-25T16:41:40.353Z,10.63
2019-03-25T16:44:09.860Z,10.40
2019-03-25T16:46:38.902Z,8.30
2019-03-25T16:49:08.188Z,13.30
2019-03-25T16:51:37.327Z,14.53
2019-03-25T16:54:06.435Z,12.07
2019-03-25T16:56:35.589Z,13.20
2019-03-25T16:59:04.763Z,14.60
2019-03-25T17:01:33.888Z,13.97
2019-03-25T17:04:04.435Z,18.57
2019-03-25T17:06:33.647Z,20.30
2019-03-25T17:09:02.671Z,19.70
2019-03-25T17:11:33.292Z,18.40
2019-03-25T17:14:02.427Z,11.63
2019-03-25T17:16:32.560Z,9.63
2019-03-25T17:19:02.772Z,8.17
2019-03-25T17:21:31.944Z,8.23
2019-03-25T17:24:02.478Z,7.43
2019-03-25T17:26:42.065Z,7.97
2019-03-25T17:29:04.417Z,14.23
2019-03-25T17:31:33.504Z,11.20
2019-03-25T17:34:04.129Z,10.77
2019-03-25T17:36:35.157Z,12.67
2019-03-25T17:39:06.306Z,11.90
2019-03-25T17:41:36.736Z,11.50
2019-03-25T17:44:09.395Z,8.13
2019-03-25T17:46:38.513Z,13.27
2019-03-25T17:49:07.573Z,15.93
2019-03-25T17:51:36.770Z,9.03
2019-03-25T17:54:07.647Z,8.97
2019-03-25T17:56:36.843Z,10.07
2019-03-25T17:59:06.017Z,21.57
2019-03-25T18:01:37.732Z,21.87
2019-03-25T18:04:06.873Z,11.17
2019-03-25T18:06:37.181Z,12.20
2019-03-25T18:09:07.818Z,8.40
2019-03-25T18:11:39.255Z,13.83
2019-03-25T18:14:10.946Z,22.43
2019-03-25T18:16:42.207Z,34.53
2019-03-25T18:19:11.303Z,18.40
2019-03-25T18:21:41.989Z,12.97
2019-03-25T18:24:12.482Z,15.37
2019-03-25T18:26:43.478Z,14.40
2019-03-25T18:29:13.996Z,16.77
2019-03-25T18:31:43.990Z,18.07
2019-03-25T18:34:15.980Z,16.73
2019-03-25T18:36:48.029Z,12.57
2019-03-25T18:39:19.399Z,19.10
2019-03-25T18:41:50.509Z,16.27
2019-03-25T18:44:19.864Z,13.83
2019-03-25T18:46:48.993Z,17.63
2019-03-25T18:49:23.757Z,13.53
2019-03-25T18:51:54.991Z,12.43
2019-03-25T18:54:25.745Z,13.37
2019-03-25T18:56:54.901Z,12.43
2019-03-25T18:59:25.466Z,14.00
2019-03-25T19:01:55.022Z,10.33
2019-03-25T19:04:27.138Z,12.63
2019-03-25T19:06:57.226Z,14.47
2019-03-25T19:09:26.382Z,14.50
2019-03-25T19:11:55.575Z,13.37
2019-03-25T19:14:24.906Z,13.73
2019-03-25T19:16:56.694Z,15.03
2019-03-25T19:19:30.098Z,14.20
2019-03-25T19:21:59.174Z,16.30
2019-03-25T19:24:28.367Z,12.10
2019-03-25T19:26:57.634Z,13.00
2019-03-25T19:29:26.735Z,14.03
2019-03-25T19:32:06.238Z,15.20
2019-03-25T19:34:31.375Z,14.63
2019-03-25T19:37:00.163Z,12.87
2019-03-25T19:39:31.657Z,11.27
2019-03-25T19:42:00.902Z,13.17
2019-03-25T19:44:31.690Z,11.83
2019-03-25T19:47:00.962Z,16.00
2019-03-25T19:49:33.329Z,20.50
2019-03-25T19:52:03.496Z,19.10
2019-03-25T19:54:32.980Z,22.97
2019-03-25T19:57:02.244Z,26.67
2019-03-25T19:59:33.586Z,25.40
2019-03-25T20:02:04.636Z,30.60
2019-03-25T20:04:35.793Z,29.33
2019-03-25T20:07:08.202Z,33.60
2019-03-25T20:09:39.013Z,21.83
2019-03-25T20:12:13.395Z,15.37
2019-03-25T20:14:44.556Z,14.40
2019-03-25T20:17:15.386Z,17.33
2019-03-25T20:19:47.602Z,13.83
2019-03-25T20:22:19.689Z,12.07
2019-03-25T20:24:49.242Z,13.87
2019-03-25T20:27:19.734Z,13.23
2019-03-25T20:29:49.084Z,14.50
2019-03-25T20:32:31.215Z,14.17
2019-03-25T20:34:55.167Z,15.50
2019-03-25T20:37:21.431Z,15.93
2019-03-25T20:39:50.649Z,10.50
2019-03-25T20:42:19.787Z,14.33
2019-03-25T20:44:49.765Z,13.63
2019-03-25T20:47:18.956Z,17.57
2019-03-25T20:49:49.575Z,17.30
2019-03-25T20:52:20.602Z,13.57
2019-03-25T20:54:54.289Z,10.70
2019-03-25T20:57:24.518Z,10.33
2019-03-25T20:59:53.673Z,10.60
2019-03-25T21:02:25.883Z,17.27
2019-03-25T21:04:55.814Z,14.93
2019-03-25T21:07:24.463Z,15.47
2019-03-25T21:09:53.308Z,13.30
2019-03-25T21:12:22.351Z,12.67
2019-03-25T21:14:51.398Z,12.43
2019-03-25T21:17:20.539Z,12.43
2019-03-25T21:19:49.414Z,14.77
2019-03-25T21:22:18.620Z,17.63
2019-03-25T21:24:47.496Z,12.97
2019-03-25T21:27:16.385Z,12.73
2019-03-25T21:29:45.303Z,15.37
2019-03-25T21:32:14.219Z,15.83
2019-03-25T21:34:43.315Z,16.80
2019-03-25T21:37:12.175Z,16.40
2019-03-25T21:39:41.212Z,18.73
2019-03-25T21:42:10.046Z,18.63
2019-03-25T21:44:38.968Z,18.33
2019-03-25T21:47:07.978Z,17.73
2019-03-25T21:49:37.288Z,16.27
2019-03-25T21:52:06.168Z,18.33
2019-03-25T21:54:35.529Z,16.83
2019-03-25T21:57:04.586Z,21.27
2019-03-25T21:59:33.347Z,21.13
2019-03-25T22:02:02.330Z,17.77
2019-03-25T22:04:31.482Z,18.67
2019-03-25T22:07:00.388Z,18.43
2019-03-25T22:09:29.840Z,22.33
2019-03-25T22:11:58.773Z,18.30
2019-03-25T22:14:27.714Z,20.67
2019-03-25T22:16:57.407Z,19.60
2019-03-25T22:19:26.607Z,23.43
2019-03-25T22:21:56.055Z,20.30
2019-03-25T22:24:25.085Z,20.00
2019-03-25T22:26:54.080Z,23.47
2019-03-25T22:29:23.088Z,19.17
2019-03-25T22:31:51.934Z,20.43
2019-03-25T22:34:20.950Z,20.53
2019-03-25T22:36:49.889Z,21.00
2019-03-25T22:39:18.606Z,27.80
2019-03-25T22:41:47.510Z,28.90
2019-03-25T22:44:16.366Z,31.30
2019-03-25T22:46:45.264Z,36.73
2019-03-25T22:49:14.018Z,36.87
2019-03-25T22:51:42.751Z,38.83
2019-03-25T22:54:11.566Z,29.13
2019-03-25T22:56:40.516Z,27.57
2019-03-25T22:59:09.359Z,29.73
2019-03-25T23:01:38.599Z,31.60
2019-03-25T23:04:07.479Z,29.03
2019-03-25T23:06:36.132Z,26.37
2019-03-25T23:09:07.561Z,27.60
2019-03-25T23:11:36.803Z,27.00
2019-03-25T23:14:05.728Z,34.47
2019-03-25T23:16:34.671Z,36.57
2019-03-25T23:19:03.609Z,33.00
2019-03-25T23:21:32.527Z,29.70
2019-03-25T23:24:01.264Z,29.87
2019-03-25T23:26:30.177Z,27.93
2019-03-25T23:28:59.090Z,31.30
2019-03-25T23:31:28.105Z,31.27
2019-03-25T23:33:56.944Z,39.70
2019-03-25T23:36:25.612Z,39.40
2019-03-25T23:38:54.644Z,39.17
2019-03-25T23:41:23.513Z,48.77
2019-03-25T23:43:52.373Z,45.27
2019-03-25T23:46:21.261Z,56.57
2019-03-25T23:48:50.094Z,59.50
2019-03-25T23:51:18.989Z,62.43
2019-03-25T23:53:47.982Z,63.60
2019-03-25T23:56:18.743Z,62.47
2019-03-25T23:58:47.287Z,62.83
